createdAt,value
2019-03-20T00:00:47.904Z,23.42
2019-03-20T00:03:21.333Z,22.98
2019-03-20T00:05:51.415Z,22.30
2019-03-20T00:08:21.556Z,22.17
2019-03-20T00:10:50.597Z,23.27
2019-03-20T00:13:19.587Z,21.93
2019-03-20T00:15:54.230Z,22.15
2019-03-20T00:18:23.216Z,22.45
2019-03-20T00:20:52.947Z,21.20
2019-03-20T00:23:25.351Z,22.05
2019-03-20T00:25:54.563Z,21.70
2019-03-20T00:28:23.542Z,20.83
2019-03-20T00:30:55.487Z,20.35
2019-03-20T00:33:24.485Z,21.05
2019-03-20T00:35:53.456Z,21.23
2019-03-20T00:38:22.489Z,20.15
2019-03-20T00:40:51.638Z,21.25
2019-03-20T00:43:27.334Z,20.55
2019-03-20T00:45:56.314Z,19.12
2019-03-20T00:48:30.162Z,19.42
2019-03-20T00:51:00.032Z,19.12
2019-03-20T00:53:29.052Z,19.43
2019-03-20T00:55:58.065Z,20.37
2019-03-20T00:58:27.098Z,18.50
2019-03-20T01:00:56.095Z,19.10
2019-03-20T01:03:25.097Z,18.57
2019-03-20T01:05:55.996Z,18.07
2019-03-20T01:08:24.944Z,17.95
2019-03-20T01:10:54.104Z,17.77
2019-03-20T01:13:23.437Z,18.23
2019-03-20T01:15:54.052Z,17.85
2019-03-20T01:18:24.280Z,18.17
2019-03-20T01:21:04.650Z,17.30
2019-03-20T01:23:37.202Z,18.12
2019-03-20T01:26:06.202Z,18.17
2019-03-20T01:28:36.824Z,18.53
2019-03-20T01:31:05.798Z,16.57
2019-03-20T01:33:34.755Z,16.93
2019-03-20T01:36:03.813Z,17.65
2019-03-20T01:38:36.352Z,17.82
2019-03-20T01:41:05.352Z,18.30
2019-03-20T01:43:34.362Z,17.75
2019-03-20T01:46:05.533Z,17.45
2019-03-20T01:48:34.556Z,17.02
2019-03-20T01:51:25.328Z,17.50
2019-03-20T01:53:54.358Z,17.20
2019-03-20T01:56:23.339Z,18.90
2019-03-20T01:58:56.992Z,19.00
2019-03-20T02:01:28.428Z,18.20
2019-03-20T02:03:58.994Z,18.92
2019-03-20T02:06:31.060Z,18.20
2019-03-20T02:09:00.057Z,18.62
2019-03-20T02:11:31.782Z,19.05
2019-03-20T02:14:02.109Z,18.62
2019-03-20T02:16:35.399Z,18.85
2019-03-20T02:19:06.527Z,18.87
2019-03-20T02:21:40.130Z,19.30
2019-03-20T02:24:12.381Z,18.65
2019-03-20T02:26:43.306Z,19.30
2019-03-20T02:29:13.099Z,19.07
2019-03-20T02:34:10.510Z,19.23
2019-03-20T02:36:41.005Z,19.57
2019-03-20T02:39:13.646Z,20.85
2019-03-20T02:41:45.317Z,20.37
2019-03-20T02:44:15.623Z,20.82
2019-03-20T02:46:44.657Z,21.25
2019-03-20T02:49:16.613Z,21.48
2019-03-20T02:51:48.815Z,21.75
2019-03-20T02:54:17.849Z,22.77
2019-03-20T02:56:46.889Z,22.30
2019-03-20T02:59:15.911Z,23.33
2019-03-20T03:01:44.936Z,22.77
2019-03-20T03:04:16.192Z,23.05
2019-03-20T03:06:48.039Z,23.00
2019-03-20T03:09:17.077Z,23.70
2019-03-20T03:11:46.664Z,22.73
2019-03-20T03:14:15.869Z,24.02
2019-03-20T03:16:44.815Z,25.43
2019-03-20T03:19:13.929Z,24.45
2019-03-20T03:21:43.382Z,24.10
2019-03-20T03:24:18.592Z,25.12
2019-03-20T03:26:47.565Z,24.20
2019-03-20T03:29:16.574Z,24.55
2019-03-20T03:31:45.543Z,25.12
2019-03-20T03:34:16.177Z,25.77
2019-03-20T03:36:45.184Z,25.90
2019-03-20T03:39:14.145Z,25.00
2019-03-20T03:41:43.191Z,25.95
2019-03-20T03:44:13.377Z,25.50
2019-03-20T03:46:44.020Z,24.63
2019-03-20T03:49:14.531Z,26.33
2019-03-20T03:51:48.512Z,27.82
2019-03-20T03:54:22.071Z,25.55
2019-03-20T03:56:52.072Z,26.05
2019-03-20T04:01:50.231Z,27.55
2019-03-20T04:04:22.686Z,27.17
2019-03-20T04:06:56.979Z,25.77
2019-03-20T04:09:25.951Z,27.40
2019-03-20T04:11:54.917Z,26.87
2019-03-20T04:14:23.964Z,27.50
2019-03-20T04:16:55.889Z,28.83
2019-03-20T04:19:26.504Z,26.77
2019-03-20T04:21:57.092Z,28.77
2019-03-20T04:24:28.412Z,27.77
2019-03-20T04:26:57.386Z,28.52
2019-03-20T04:29:27.625Z,27.35
2019-03-20T04:31:57.619Z,27.65
2019-03-20T04:36:55.018Z,28.65
2019-03-20T04:39:24.029Z,26.97
2019-03-20T04:41:53.614Z,28.87
2019-03-20T04:44:25.690Z,28.57
2019-03-20T04:46:54.700Z,29.40
2019-03-20T04:49:23.689Z,28.02
2019-03-20T04:51:52.721Z,27.65
2019-03-20T04:54:21.753Z,28.67
2019-03-20T04:57:02.306Z,28.12
2019-03-20T04:59:31.316Z,28.40
2019-03-20T05:02:00.842Z,29.57
2019-03-20T05:04:32.690Z,28.30
2019-03-20T05:07:01.721Z,28.73
2019-03-20T05:09:30.754Z,29.12
2019-03-20T05:11:59.776Z,29.75
2019-03-20T05:14:28.809Z,29.82
2019-03-20T05:17:00.166Z,28.35
2019-03-20T05:19:29.195Z,28.52
2019-03-20T05:21:59.861Z,28.92
2019-03-20T05:24:30.908Z,27.80
2019-03-20T05:26:59.971Z,29.27
2019-03-20T05:29:28.990Z,29.32
2019-03-20T05:32:07.267Z,28.87
2019-03-20T05:34:37.166Z,29.65
2019-03-20T05:37:10.567Z,28.27
2019-03-20T05:39:36.870Z,28.90
2019-03-20T05:42:06.010Z,28.07
2019-03-20T05:44:34.954Z,27.13
2019-03-20T05:47:03.930Z,28.73
2019-03-20T05:49:32.973Z,27.20
2019-03-20T05:52:02.016Z,29.55
2019-03-20T05:54:32.627Z,28.10
2019-03-20T05:57:01.642Z,26.95
2019-03-20T05:59:31.806Z,26.93
2019-03-20T06:02:00.770Z,27.02
2019-03-20T06:04:29.877Z,27.03
2019-03-20T06:06:58.844Z,27.17
2019-03-20T06:09:27.836Z,27.87
2019-03-20T06:11:59.805Z,27.58
2019-03-20T06:14:28.924Z,27.30
2019-03-20T06:16:57.858Z,27.97
2019-03-20T06:19:27.046Z,27.45
2019-03-20T06:21:56.053Z,28.50
2019-03-20T06:24:27.875Z,27.42
2019-03-20T06:26:57.267Z,28.00
2019-03-20T06:29:26.433Z,28.05
2019-03-20T06:31:55.466Z,28.35
2019-03-20T06:34:24.452Z,28.98
2019-03-20T06:36:57.238Z,29.65
2019-03-20T06:39:26.389Z,25.97
2019-03-20T06:41:55.337Z,28.03
2019-03-20T06:44:24.405Z,27.45
2019-03-20T06:46:59.426Z,28.32
2019-03-20T06:49:28.515Z,28.10
2019-03-20T06:51:57.480Z,26.30
2019-03-20T06:54:26.445Z,26.45
2019-03-20T06:56:55.780Z,28.02
2019-03-20T06:59:31.653Z,27.95
2019-03-20T07:02:01.917Z,27.87
2019-03-20T07:08:00.196Z,27.17
2019-03-20T07:10:30.755Z,28.80
2019-03-20T07:12:59.745Z,29.32
2019-03-20T07:15:28.780Z,26.02
2019-03-20T07:18:00.915Z,28.15
2019-03-20T07:20:29.867Z,25.95
2019-03-20T07:22:58.837Z,26.85
2019-03-20T07:25:27.811Z,26.52
2019-03-20T07:27:57.465Z,26.60
2019-03-20T07:30:27.711Z,26.35
2019-03-20T07:32:58.484Z,25.50
2019-03-20T07:35:28.809Z,26.83
2019-03-20T07:37:59.551Z,24.85
2019-03-20T07:40:29.579Z,24.70
2019-03-20T07:45:28.309Z,25.48
2019-03-20T07:47:57.291Z,23.57
2019-03-20T07:50:26.312Z,24.50
2019-03-20T07:52:59.432Z,22.87
2019-03-20T07:55:28.805Z,23.42
2019-03-20T07:57:59.385Z,22.93
2019-03-20T08:00:31.461Z,22.60
2019-03-20T08:03:03.507Z,23.00
2019-03-20T08:05:32.487Z,22.60
2019-03-20T08:08:07.123Z,21.55
2019-03-20T08:10:36.835Z,22.00
2019-03-20T08:13:07.899Z,22.50
2019-03-20T08:15:38.447Z,22.27
2019-03-20T08:18:15.472Z,22.17
2019-03-20T08:20:39.797Z,22.27
2019-03-20T08:23:08.781Z,23.77
2019-03-20T08:25:40.803Z,23.02
2019-03-20T08:28:10.236Z,23.20
2019-03-20T08:30:40.869Z,22.90
2019-03-20T08:33:09.958Z,22.82
2019-03-20T08:35:41.452Z,21.95
2019-03-20T08:38:18.203Z,22.55
2019-03-20T08:40:41.076Z,23.20
2019-03-20T08:43:10.063Z,22.13
2019-03-20T08:45:39.029Z,23.40
2019-03-20T08:48:08.001Z,22.02
2019-03-20T08:50:36.982Z,20.92
2019-03-20T08:53:06.601Z,22.70
2019-03-20T08:55:39.344Z,20.60
2019-03-20T08:58:08.510Z,21.82
2019-03-20T09:00:42.590Z,21.37
2019-03-20T09:03:11.720Z,21.17
2019-03-20T09:05:40.713Z,22.00
2019-03-20T09:08:09.726Z,22.50
2019-03-20T09:10:59.550Z,22.27
2019-03-20T09:13:28.597Z,21.35
2019-03-20T09:15:58.418Z,21.25
2019-03-20T09:18:27.438Z,19.98
2019-03-20T09:20:58.374Z,19.95
2019-03-20T09:23:28.958Z,18.77
2019-03-20T09:26:03.348Z,19.00
2019-03-20T09:28:51.667Z,19.05
2019-03-20T09:31:20.638Z,19.27
2019-03-20T09:33:51.813Z,20.05
2019-03-20T09:36:21.401Z,20.05
2019-03-20T09:38:52.334Z,19.25
2019-03-20T09:41:28.293Z,19.02
2019-03-20T09:44:01.787Z,19.82
2019-03-20T09:46:30.825Z,20.72
2019-03-20T09:48:59.829Z,20.13
2019-03-20T09:51:30.067Z,19.37
2019-03-20T09:53:59.060Z,20.55
2019-03-20T09:56:32.345Z,21.37
2019-03-20T09:59:03.090Z,22.85
2019-03-20T10:01:32.217Z,21.05
2019-03-20T10:04:01.265Z,22.35
2019-03-20T10:06:35.423Z,23.13
2019-03-20T10:09:10.830Z,22.80
2019-03-20T10:11:39.835Z,21.60
2019-03-20T10:14:09.004Z,23.83
2019-03-20T10:16:40.310Z,23.02
2019-03-20T10:19:09.327Z,23.67
2019-03-20T10:21:38.319Z,23.83
2019-03-20T10:24:07.369Z,22.70
2019-03-20T10:26:38.767Z,23.30
2019-03-20T10:29:07.734Z,23.42
2019-03-20T10:31:36.785Z,23.47
2019-03-20T10:34:05.747Z,23.35
2019-03-20T10:36:34.713Z,21.97
2019-03-20T10:41:42.743Z,21.33
2019-03-20T10:44:14.623Z,22.37
2019-03-20T10:46:43.671Z,23.75
2019-03-20T10:49:12.694Z,23.00
2019-03-20T10:51:43.037Z,21.90
2019-03-20T10:54:12.059Z,23.40
2019-03-20T10:59:11.885Z,21.77
2019-03-20T11:01:42.783Z,23.07
2019-03-20T11:04:15.135Z,22.13
2019-03-20T11:06:48.404Z,23.12
2019-03-20T11:09:21.487Z,25.00
2019-03-20T11:11:50.462Z,25.25
2019-03-20T11:14:24.941Z,22.15
2019-03-20T11:16:54.366Z,24.43
2019-03-20T11:19:26.910Z,22.22
2019-03-20T11:21:56.042Z,21.40
2019-03-20T11:24:30.494Z,20.62
2019-03-20T11:27:02.061Z,18.92
2019-03-20T11:29:31.014Z,20.80
2019-03-20T11:32:09.110Z,21.12
2019-03-20T11:34:38.081Z,20.85
2019-03-20T11:37:07.190Z,21.27
2019-03-20T11:39:36.126Z,19.87
2019-03-20T11:42:06.902Z,18.70
2019-03-20T11:44:37.462Z,18.73
2019-03-20T11:47:09.330Z,16.97
2019-03-20T11:49:42.284Z,17.10
2019-03-20T11:52:13.432Z,15.80
2019-03-20T11:54:43.927Z,14.05
2019-03-20T11:57:21.650Z,15.85
2019-03-20T11:59:50.773Z,15.30
2019-03-20T12:02:27.942Z,16.75
2019-03-20T12:04:50.821Z,16.32
2019-03-20T12:07:19.843Z,16.37
2019-03-20T12:09:58.975Z,15.23
2019-03-20T12:12:36.765Z,14.43
2019-03-20T12:15:05.949Z,14.68
2019-03-20T12:17:34.981Z,14.30
2019-03-20T12:20:05.500Z,13.40
2019-03-20T12:22:38.873Z,12.75
2019-03-20T12:25:09.491Z,13.30
2019-03-20T12:30:34.953Z,11.83
2019-03-20T12:33:04.585Z,13.03
2019-03-20T12:35:58.955Z,12.13
2019-03-20T12:38:27.943Z,10.38
2019-03-20T12:40:57.087Z,9.70
2019-03-20T12:43:26.057Z,10.05
2019-03-20T12:45:55.019Z,10.60
2019-03-20T12:55:15.356Z,11.05
2019-03-20T12:57:44.335Z,12.50
2019-03-20T13:00:17.344Z,12.83
2019-03-20T13:02:46.424Z,12.33
2019-03-20T13:05:15.927Z,12.83
2019-03-20T13:07:45.177Z,12.70
2019-03-20T13:10:20.522Z,12.15
2019-03-20T13:12:49.668Z,10.78
2019-03-20T13:15:26.640Z,10.03
2019-03-20T13:17:56.270Z,9.93
2019-03-20T13:20:28.024Z,9.55
2019-03-20T13:23:01.286Z,9.70
2019-03-20T13:25:32.255Z,9.73
2019-03-20T13:28:01.460Z,9.60
2019-03-20T13:30:40.830Z,9.18
2019-03-20T13:33:09.887Z,8.98
2019-03-20T13:35:40.475Z,9.60
2019-03-20T13:38:09.475Z,9.30
2019-03-20T13:40:43.118Z,8.97
2019-03-20T13:43:12.082Z,9.15
2019-03-20T13:45:47.882Z,10.20
2019-03-20T13:48:18.570Z,8.95
2019-03-20T13:50:47.658Z,9.48
2019-03-20T13:53:16.607Z,9.13
2019-03-20T13:55:45.594Z,9.05
2019-03-20T13:58:16.626Z,10.17
2019-03-20T14:00:45.630Z,9.08
2019-03-20T14:03:16.347Z,8.67
2019-03-20T14:05:45.546Z,8.50
2019-03-20T14:08:14.497Z,9.03
2019-03-20T14:10:50.260Z,8.60
2019-03-20T14:13:14.138Z,9.05
2019-03-20T14:15:43.102Z,8.90
2019-03-20T14:18:12.035Z,9.17
2019-03-20T14:20:42.590Z,8.45
2019-03-20T14:23:13.195Z,8.15
2019-03-20T14:25:42.220Z,8.38
2019-03-20T14:28:11.235Z,9.17
2019-03-20T14:30:40.162Z,7.67
2019-03-20T14:33:11.193Z,8.10
2019-03-20T14:35:40.239Z,7.42
2019-03-20T14:38:11.275Z,8.27
2019-03-20T14:40:42.373Z,8.08
2019-03-20T14:43:11.368Z,8.58
2019-03-20T14:45:43.385Z,9.05
2019-03-20T14:48:12.374Z,9.88
2019-03-20T14:50:41.308Z,10.07
2019-03-20T14:53:11.893Z,9.43
2019-03-20T14:55:40.869Z,10.70
2019-03-20T14:58:09.801Z,10.00
2019-03-20T15:00:38.783Z,8.50
2019-03-20T15:03:13.835Z,8.80
2019-03-20T15:05:42.893Z,9.08
2019-03-20T15:08:14.927Z,9.63
2019-03-20T15:10:46.130Z,10.17
2019-03-20T15:13:20.471Z,9.33
2019-03-20T15:15:56.863Z,9.10
2019-03-20T15:18:25.812Z,9.58
2019-03-20T15:20:58.748Z,9.70
2019-03-20T15:23:30.172Z,9.35
2019-03-20T15:25:58.769Z,8.40
2019-03-20T15:28:27.733Z,8.70
2019-03-20T15:30:58.342Z,8.35
2019-03-20T15:33:27.311Z,8.50
2019-03-20T15:36:00.703Z,8.55
2019-03-20T15:38:29.645Z,7.30
2019-03-20T15:41:02.457Z,6.72
2019-03-20T15:43:34.477Z,6.37
2019-03-20T15:46:06.574Z,6.20
2019-03-20T15:48:35.883Z,6.47
2019-03-20T15:51:10.296Z,6.60
2019-03-20T15:53:42.683Z,7.20
2019-03-20T15:56:14.743Z,8.60
2019-03-20T15:58:43.824Z,7.80
2019-03-20T16:01:14.041Z,8.35
2019-03-20T16:03:46.835Z,8.00
2019-03-20T16:06:18.607Z,8.65
2019-03-20T16:08:50.846Z,8.30
2019-03-20T16:11:23.805Z,8.93
2019-03-20T16:13:52.768Z,9.30
2019-03-20T16:16:28.576Z,9.10
2019-03-20T16:18:56.046Z,7.58
2019-03-20T16:21:25.098Z,7.75
2019-03-20T16:23:57.102Z,8.00
2019-03-20T16:26:27.032Z,7.97
2019-03-20T16:28:56.230Z,7.75
2019-03-20T16:31:28.306Z,8.23
2019-03-20T16:33:57.310Z,8.08
2019-03-20T16:36:33.462Z,8.18
2019-03-20T16:39:02.543Z,7.97
2019-03-20T16:41:34.447Z,7.83
2019-03-20T16:44:06.976Z,8.23
2019-03-20T16:49:05.582Z,6.80
2019-03-20T16:51:34.550Z,6.90
2019-03-20T16:54:05.619Z,6.97
2019-03-20T16:56:34.664Z,6.95
2019-03-20T16:59:06.255Z,6.75
2019-03-20T17:01:39.007Z,6.22
2019-03-20T17:04:07.956Z,6.60
2019-03-20T17:06:36.928Z,7.10
2019-03-20T17:09:14.825Z,8.55
2019-03-20T17:11:43.852Z,9.58
2019-03-20T17:14:12.804Z,9.50
2019-03-20T17:19:15.103Z,9.23
2019-03-20T17:21:45.908Z,9.43
2019-03-20T17:24:19.149Z,7.90
2019-03-20T17:26:53.945Z,7.85
2019-03-20T17:29:24.791Z,8.40
2019-03-20T17:31:54.108Z,6.40
2019-03-20T17:34:23.145Z,7.35
2019-03-20T17:36:52.173Z,7.35
2019-03-20T17:39:21.112Z,7.60
2019-03-20T17:41:51.691Z,7.42
2019-03-20T17:44:20.941Z,7.53
2019-03-20T17:46:50.256Z,7.33
2019-03-20T17:49:19.219Z,8.05
2019-03-20T17:51:50.222Z,8.43
2019-03-20T17:54:22.553Z,9.25
2019-03-20T17:56:57.606Z,8.13
2019-03-20T17:59:31.165Z,8.83
2019-03-20T18:02:00.139Z,8.90
2019-03-20T18:04:29.091Z,9.10
2019-03-20T18:06:59.705Z,9.85
2019-03-20T18:09:31.331Z,9.93
2019-03-20T18:12:00.299Z,10.20
2019-03-20T18:14:29.443Z,10.03
2019-03-20T18:16:58.394Z,9.93
2019-03-20T18:19:27.443Z,9.73
2019-03-20T18:21:59.179Z,9.80
2019-03-20T18:24:28.205Z,9.85
2019-03-20T18:27:00.303Z,10.70
2019-03-20T18:29:30.915Z,10.08
2019-03-20T18:32:00.120Z,11.18
2019-03-20T18:34:29.056Z,10.30
2019-03-20T18:36:59.934Z,9.88
2019-03-20T18:39:30.563Z,11.43
2019-03-20T18:42:01.322Z,11.85
2019-03-20T18:44:33.336Z,10.72
2019-03-20T18:47:03.572Z,11.00
2019-03-20T18:49:32.575Z,11.08
2019-03-20T18:52:01.608Z,11.38
2019-03-20T18:54:30.838Z,9.48
2019-03-20T18:57:01.447Z,9.98
2019-03-20T18:59:30.486Z,10.28
2019-03-20T19:02:04.195Z,8.58
2019-03-20T19:04:34.042Z,8.85
2019-03-20T19:07:07.610Z,8.18
2019-03-20T19:09:36.726Z,8.45
2019-03-20T19:12:08.849Z,7.72
2019-03-20T19:14:40.822Z,7.92
2019-03-20T19:17:09.905Z,7.55
2019-03-20T19:19:38.850Z,9.20
2019-03-20T19:22:16.491Z,8.15
2019-03-20T19:24:45.575Z,8.18
2019-03-20T19:27:14.553Z,9.07
2019-03-20T19:29:43.551Z,8.90
2019-03-20T19:32:17.152Z,9.18
2019-03-20T19:34:49.627Z,9.40
2019-03-20T19:37:20.970Z,9.50
2019-03-20T19:39:52.776Z,9.33
2019-03-20T19:42:22.567Z,10.80
2019-03-20T19:44:55.998Z,9.00
2019-03-20T19:47:28.690Z,10.10
2019-03-20T19:50:00.573Z,9.45
2019-03-20T19:52:30.110Z,9.40
2019-03-20T19:55:03.461Z,8.98
2019-03-20T19:57:35.531Z,10.32
2019-03-20T20:00:10.228Z,10.53
2019-03-20T20:02:39.215Z,10.00
2019-03-20T20:05:15.708Z,10.53
2019-03-20T20:07:44.801Z,9.18
2019-03-20T20:10:18.494Z,10.68
2019-03-20T20:12:47.696Z,11.00
2019-03-20T20:15:18.008Z,11.43
2019-03-20T20:17:47.359Z,10.80
2019-03-20T20:20:20.167Z,11.28
2019-03-20T20:22:52.072Z,10.63
2019-03-20T20:25:21.037Z,11.70
2019-03-20T20:27:50.039Z,11.57
2019-03-20T20:30:21.616Z,12.53
2019-03-20T20:32:50.605Z,11.60
2019-03-20T20:35:19.571Z,12.15
2019-03-20T20:37:49.211Z,11.57
2019-03-20T20:40:25.819Z,10.98
2019-03-20T20:42:54.777Z,12.30
2019-03-20T20:45:23.935Z,11.43
2019-03-20T20:47:52.900Z,12.10
2019-03-20T20:50:26.171Z,12.28
2019-03-20T20:52:55.281Z,13.25
2019-03-20T20:55:24.492Z,13.47
2019-03-20T20:57:53.539Z,13.20
2019-03-20T21:00:24.031Z,13.45
2019-03-20T21:02:54.518Z,13.58
2019-03-20T21:05:29.460Z,12.98
2019-03-20T21:07:59.832Z,14.63
2019-03-20T21:10:30.411Z,13.75
2019-03-20T21:12:59.744Z,14.35
2019-03-20T21:15:35.739Z,13.10
2019-03-20T21:18:15.056Z,13.78
2019-03-20T21:21:04.342Z,13.40
2019-03-20T21:23:40.905Z,15.27
2019-03-20T21:26:11.048Z,13.93
2019-03-20T21:28:51.971Z,14.85
2019-03-20T21:31:22.606Z,15.30
2019-03-20T21:33:57.319Z,15.23
2019-03-20T21:36:42.709Z,14.95
2019-03-20T21:39:14.876Z,15.13
2019-03-20T21:41:47.960Z,16.07
2019-03-20T21:44:35.012Z,14.58
2019-03-20T21:47:23.784Z,15.93
2019-03-20T21:49:54.378Z,15.88
2019-03-20T21:52:23.602Z,15.48
2019-03-20T21:54:56.962Z,15.13
2019-03-20T21:57:34.332Z,14.83
2019-03-20T22:00:10.715Z,15.15
2019-03-20T22:02:54.628Z,14.50
2019-03-20T22:05:32.460Z,14.25
2019-03-20T22:08:04.629Z,14.87
2019-03-20T22:10:47.134Z,14.38
2019-03-20T22:13:21.370Z,14.20
2019-03-20T22:16:05.228Z,15.38
2019-03-20T22:18:55.711Z,14.38
2019-03-20T22:21:28.862Z,14.38
2019-03-20T22:23:59.382Z,15.78
2019-03-20T22:26:32.841Z,14.83
2019-03-20T22:29:03.371Z,15.88
2019-03-20T22:31:38.732Z,17.45
2019-03-20T22:34:22.947Z,17.20
2019-03-20T22:36:54.017Z,18.57
2019-03-20T22:39:30.557Z,19.02
2019-03-20T22:42:01.345Z,19.52
2019-03-20T22:44:34.755Z,18.77
2019-03-20T22:47:21.699Z,19.90
2019-03-20T22:49:56.690Z,18.98
2019-03-20T22:52:44.544Z,20.12
2019-03-20T22:55:35.801Z,20.92
2019-03-20T22:58:08.539Z,21.62
2019-03-20T23:00:39.134Z,20.43
2019-03-20T23:03:18.862Z,22.83
2019-03-20T23:05:49.393Z,22.20
2019-03-20T23:08:18.401Z,23.60
2019-03-20T23:10:48.755Z,22.67
2019-03-20T23:13:19.556Z,24.47
2019-03-20T23:15:54.059Z,25.02
2019-03-20T23:18:24.647Z,24.67
2019-03-20T23:20:55.646Z,24.57
2019-03-20T23:23:26.663Z,24.15
2019-03-20T23:25:56.723Z,23.60
2019-03-20T23:31:00.273Z,21.23
2019-03-20T23:33:32.409Z,25.62
2019-03-20T23:36:01.355Z,24.32
2019-03-20T23:38:30.398Z,24.80
2019-03-20T23:41:02.122Z,24.15
2019-03-20T23:43:32.387Z,24.40
2019-03-20T23:46:08.074Z,24.90
2019-03-20T23:48:41.797Z,26.97
2019-03-20T23:51:19.971Z,26.27
2019-03-20T23:53:50.212Z,26.62
2019-03-20T23:56:19.244Z,25.85
2019-03-20T23:58:48.262Z,26.42
